Flight Track Log - Related Links

Times and Time Zones

All times are in EDT time to prevent confusion due to time zone crossing. See the KFS915 flight status page for this flight to view local times or setup timezone preferences in your user account.


Time Position Orientation Groundspeed Altitude Reporting Facility
EDT Latitude Longitude Course Direction KTS MPH feet Rate Location/Type
Fri 04:26:49 AM 27.5053 -99.4617 169° South 184 212 2,000  Level Houston Center
Fri 04:27:49 AM 27.4422 -99.4475 169° South 218 251 4,600 2,300 Climbing Houston Center
Fri 04:28:49 AM 27.3706 -99.4314 169° South 247 284 6,600 2,450 Climbing Houston Center
Fri 04:29:49 AM 27.2906 -99.4122 168° South 278 320 9,500 2,331 Climbing Houston Center
Fri 04:30:50 AM 27.2092 -99.3925 168° South 291 335 11,300 1,736 Climbing Houston Center
Fri 04:31:50 AM 27.1194 -99.3711 168° South 308 354 13,000 1,950 Climbing Houston Center
Fri 04:32:50 AM 27.0208 -99.3503 169° South 347 399 15,200 2,200 Climbing Houston Center
Fri 04:33:50 AM 26.9242 -99.3283 169° South 354 407 17,400 1,950 Climbing Houston Center
Fri 04:34:50 AM 26.8253 -99.3067 169° South 359 413 19,100 1,686 Climbing Houston Center
Fri 04:35:51 AM 26.7203 -99.2942 174° South 375 432 20,800 1,785 Climbing Houston Center
Fri 04:36:51 AM 26.6131 -99.2817 174° South 383 441 22,700 1,900 Climbing Houston Center
Fri 04:38:00 AM 26.4959 -99.2830 181° South  Level FlightAware Approximate
Fri 04:45:00 AM 25.7868 -99.2025 174° South  Level FlightAware Approximate
Fri 04:46:00 AM 25.6856 -99.1902 174° South  Level FlightAware Approximate
Fri 04:47:00 AM 25.5843 -99.1780 174° South  Level FlightAware Approximate
Fri 04:48:00 AM 25.4830 -99.1658 174° South  Level FlightAware Approximate
Fri 04:49:00 AM 25.3817 -99.1536 174° South  Level FlightAware Approximate
Fri 04:50:00 AM 25.2803 -99.1415 174° South  Level FlightAware Approximate
Fri 04:51:00 AM 25.1790 -99.1293 174° South  Level FlightAware Approximate
Fri 04:52:00 AM 25.0777 -99.1172 174° South  Level FlightAware Approximate
Fri 04:53:00 AM 24.9764 -99.1051 174° South  Level FlightAware Approximate
Fri 04:54:00 AM 24.8752 -99.0921 173° South  Level FlightAware Approximate
Fri 04:55:00 AM 24.7741 -99.0784 173° South  Level FlightAware Approximate
Fri 04:56:00 AM 24.6729 -99.0647 173° South  Level FlightAware Approximate
Fri 04:57:00 AM 24.5718 -99.0510 173° South  Level FlightAware Approximate
Fri 04:58:00 AM 24.4706 -99.0374 173° South  Level FlightAware Approximate
Fri 04:59:00 AM 24.3695 -99.0238 173° South  Level FlightAware Approximate
Fri 05:00:00 AM 24.2682 -99.0114 174° South  Level FlightAware Approximate
Fri 05:01:00 AM 24.1668 -99.0004 174° South  Level FlightAware Approximate
Fri 05:02:00 AM 24.0654 -98.9894 174° South  Level FlightAware Approximate
Fri 05:03:00 AM 23.9640 -98.9785 174° South  Level FlightAware Approximate
Fri 05:04:00 AM 23.8626 -98.9675 174° South  Level FlightAware Approximate
Fri 05:05:00 AM 23.7612 -98.9566 174° South  Level FlightAware Approximate
Fri 05:06:00 AM 23.6622 -98.9655 201° Southwest  Level FlightAware Approximate
Fri 05:07:00 AM 23.5668 -99.0046 201° Southwest  Level FlightAware Approximate
Fri 05:08:00 AM 23.4714 -99.0436 201° Southwest  Level FlightAware Approximate
Fri 05:09:00 AM 23.3759 -99.0826 201° Southwest  Level FlightAware Approximate
Fri 05:10:00 AM 23.2815 -99.1242 201° Southwest  Level FlightAware Approximate
Fri 05:11:00 AM 23.1862 -99.1633 201° Southwest  Level FlightAware Approximate
Fri 05:12:00 AM 23.0908 -99.2024 201° Southwest  Level FlightAware Approximate
Fri 05:13:00 AM 22.9954 -99.2413 201° Southwest  Level FlightAware Approximate
Fri 05:14:00 AM 22.9000 -99.2803 201° Southwest  Level FlightAware Approximate
Fri 05:15:00 AM 22.8046 -99.3191 201° Southwest  Level FlightAware Approximate
Fri 05:16:00 AM 22.7092 -99.3579 201° Southwest  Level FlightAware Approximate
Fri 05:17:00 AM 22.6138 -99.3967 201° Southwest  Level FlightAware Approximate
Fri 05:18:00 AM 22.5184 -99.4354 201° Southwest  Level FlightAware Approximate
Fri 05:19:00 AM 22.4230 -99.4740 201° Southwest  Level FlightAware Approximate
Fri 05:20:00 AM 22.3274 -99.5124 200° South  Level FlightAware Approximate
Fri 05:21:00 AM 22.2284 -99.5363 209° Southwest  Level FlightAware Approximate
Fri 05:22:00 AM 22.1383 -99.5872 197° South  Level FlightAware Approximate
Fri 05:23:00 AM 22.0409 -99.6197 197° South  Level FlightAware Approximate
Fri 05:24:00 AM 21.9438 -99.6527 202° Southwest  Level FlightAware Approximate
Fri 05:25:00 AM 21.8494 -99.6941 202° Southwest  Level FlightAware Approximate
Fri 05:26:00 AM 21.7549 -99.7354 202° Southwest  Level FlightAware Approximate
Fri 05:27:00 AM 21.6601 -99.7755 199° South  Level FlightAware Approximate
Fri 05:28:00 AM 21.5641 -99.8120 199° South  Level FlightAware Approximate
Fri 05:29:00 AM 21.4680 -99.8485 199° South  Level FlightAware Approximate
Fri 05:30:00 AM 21.3719 -99.8849 199° South  Level FlightAware Approximate
Fri 05:31:00 AM 21.2758 -99.9213 199° South  Level FlightAware Approximate
Fri 05:32:00 AM 21.1801 -99.9588 203° Southwest  Level FlightAware Approximate
Fri 05:33:00 AM 21.0860 -100.0007 203° Southwest  Level FlightAware Approximate
Fri 05:34:00 AM 20.9913 -100.0411 201° Southwest  Level FlightAware Approximate
Fri 05:35:00 AM 20.8964 -100.0807 201° Southwest  Level FlightAware Approximate
Fri 05:36:00 AM 20.8002 -100.1166 197° South  Level FlightAware Approximate
Fri 05:37:00 AM 20.7029 -100.1490 197° South  Level FlightAware Approximate
Fri 05:38:00 AM 20.6167 -100.1914 270° West  Level FlightAware Approximate
Fri 05:39:00 AM 20.6173 -100.1857 270° West  Level Estimated
Fri 05:40:00 AM 20.6173 -100.1857 270° West  Level Estimated
Fri 05:41:00 AM 20.6173 -100.1857 270° West  Level Estimated
Fri 05:42:00 AM 20.6173 -100.1857 270° West  Level Estimated
Fri 05:43:00 AM 20.6173 -100.1857 270° West  Level Estimated
Fri 05:44:00 AM 20.6173 -100.1857 270° West  Level Estimated
Fri 05:45:00 AM 20.6173 -100.1857 270° West  Level Estimated
Fri 05:46:00 AM 20.6173 -100.1857 270° West  Level Estimated
Fri 05:47:00 AM 20.6173 -100.1857 270° West  Level Estimated
Fri 05:48:00 AM 20.6173 -100.1857 270° West  Level Estimated
Fri 05:49:00 AM 20.6173 -100.1857 270° West  Level Estimated
Fri 05:50:00 AM 20.6173 -100.1857 270° West  Level Estimated
Fri 05:51:00 AM 20.6173 -100.1857 270° West  Level Estimated
Fri 05:52:00 AM 20.6173 -100.1857 270° West  Level Estimated
Fri 05:53:00 AM 20.6173 -100.1857 270° West  Level Estimated
Fri 05:54:00 AM 20.6173 -100.1857 270° West  Level Estimated

Login

Don't have an account? Register now (free) for customized features, flight alerts, and more!